sensor_id;sensor_type;location;lat;lon;timestamp;pressure;altitude;pressure_sealevel;temperature;humidity
6136;BME280;24008;42.664;23.372;2023-06-04T00:02:20;94882.72;;;15.69;100.00
6136;BME280;24008;42.664;23.372;2023-06-04T00:04:46;94888.47;;;15.71;100.00
6136;BME280;24008;42.664;23.372;2023-06-04T00:07:13;94892.31;;;15.75;100.00
6136;BME280;24008;42.664;23.372;2023-06-04T00:09:42;94858.59;;;15.54;100.00
6136;BME280;24008;42.664;23.372;2023-06-04T00:12:09;94888.63;;;15.78;100.00
6136;BME280;24008;42.664;23.372;2023-06-04T00:14:36;94894.25;;;15.81;100.00
6136;BME280;24008;42.664;23.372;2023-06-04T00:17:03;94892.44;;;15.82;100.00
6136;BME280;24008;42.664;23.372;2023-06-04T00:19:30;94865.00;;;15.66;100.00
6136;BME280;24008;42.664;23.372;2023-06-04T00:21:56;94891.31;;;15.84;100.00
6136;BME280;24008;42.664;23.372;2023-06-04T00:24:23;94640.28;;;14.24;100.00
6136;BME280;24008;42.664;23.372;2023-06-04T00:26:51;94888.09;;;15.82;100.00
6136;BME280;24008;42.664;23.372;2023-06-04T00:29:18;94766.56;;;15.09;100.00
6136;BME280;24008;42.664;23.372;2023-06-04T00:31:45;94793.53;;;15.21;100.00
6136;BME280;24008;42.664;23.372;2023-06-04T00:34:11;94857.28;;;15.66;100.00
6136;BME280;24008;42.664;23.372;2023-06-04T00:36:39;94884.09;;;15.80;100.00
6136;BME280;24008;42.664;23.372;2023-06-04T00:39:06;94775.91;;;15.02;100.00
6136;BME280;24008;42.664;23.372;2023-06-04T00:41:33;94876.06;;;15.75;100.00
6136;BME280;24008;42.664;23.372;2023-06-04T00:44:01;94876.88;;;15.75;100.00
6136;BME280;24008;42.664;23.372;2023-06-04T00:46:32;94879.13;;;15.70;100.00
6136;BME280;24008;42.664;23.372;2023-06-04T00:49:01;94870.78;;;15.68;100.00
6136;BME280;24008;42.664;23.372;2023-06-04T00:51:30;94649.25;;;14.28;100.00
6136;BME280;24008;42.664;23.372;2023-06-04T00:53:58;94682.78;;;14.51;100.00
6136;BME280;24008;42.664;23.372;2023-06-04T00:56:26;94874.16;;;15.69;100.00
6136;BME280;24008;42.664;23.372;2023-06-04T00:58:53;94870.31;;;15.65;100.00
6136;BME280;24008;42.664;23.372;2023-06-04T01:01:35;94877.25;;;15.64;100.00
6136;BME280;24008;42.664;23.372;2023-06-04T01:04:09;94820.69;;;15.24;100.00
6136;BME280;24008;42.664;23.372;2023-06-04T01:06:42;94878.91;;;15.57;100.00
6136;BME280;24008;42.664;23.372;2023-06-04T01:09:10;94805.66;;;15.04;100.00
6136;BME280;24008;42.664;23.372;2023-06-04T01:11:38;94850.44;;;15.34;100.00
6136;BME280;24008;42.664;23.372;2023-06-04T01:14:07;94877.91;;;15.50;100.00
6136;BME280;24008;42.664;23.372;2023-06-04T01:16:39;94845.31;;;15.26;100.00
6136;BME280;24008;42.664;23.372;2023-06-04T01:19:22;94827.78;;;15.22;100.00
6136;BME280;24008;42.664;23.372;2023-06-04T01:22:03;94848.34;;;15.38;100.00
6136;BME280;24008;42.664;23.372;2023-06-04T01:24:34;94816.88;;;15.20;100.00
6136;BME280;24008;42.664;23.372;2023-06-04T01:27:02;94874.53;;;15.58;100.00
6136;BME280;24008;42.664;23.372;2023-06-04T01:29:29;94874.03;;;15.54;100.00
6136;BME280;24008;42.664;23.372;2023-06-04T01:31:59;94879.88;;;15.56;100.00
6136;BME280;24008;42.664;23.372;2023-06-04T01:34:25;94763.44;;;14.74;100.00
6136;BME280;24008;42.664;23.372;2023-06-04T01:36:52;94887.25;;;15.51;100.00
6136;BME280;24008;42.664;23.372;2023-06-04T01:39:19;94892.56;;;15.49;100.00
6136;BME280;24008;42.664;23.372;2023-06-04T01:41:46;94910.75;;;15.48;100.00
6136;BME280;24008;42.664;23.372;2023-06-04T01:44:12;94897.59;;;15.43;100.00
6136;BME280;24008;42.664;23.372;2023-06-04T01:46:39;94789.84;;;14.52;100.00
6136;BME280;24008;42.664;23.372;2023-06-04T01:49:07;94826.28;;;14.96;100.00
6136;BME280;24008;42.664;23.372;2023-06-04T01:51:34;94897.91;;;15.40;100.00
6136;BME280;24008;42.664;23.372;2023-06-04T01:54:02;94897.28;;;15.38;100.00
6136;BME280;24008;42.664;23.372;2023-06-04T01:56:28;94900.97;;;15.35;100.00
6136;BME280;24008;42.664;23.372;2023-06-04T01:58:55;94904.72;;;15.33;100.00
6136;BME280;24008;42.664;23.372;2023-06-04T02:01:22;94905.50;;;15.33;100.00
6136;BME280;24008;42.664;23.372;2023-06-04T02:03:49;94903.09;;;15.32;100.00
6136;BME280;24008;42.664;23.372;2023-06-04T02:06:17;94903.09;;;15.32;100.00
6136;BME280;24008;42.664;23.372;2023-06-04T02:08:44;94697.19;;;13.97;100.00
6136;BME280;24008;42.664;23.372;2023-06-04T02:11:11;94875.13;;;15.12;100.00
6136;BME280;24008;42.664;23.372;2023-06-04T02:13:37;94794.00;;;14.61;100.00
6136;BME280;24008;42.664;23.372;2023-06-04T02:16:05;94871.28;;;15.00;100.00
6136;BME280;24008;42.664;23.372;2023-06-04T02:18:31;94888.50;;;15.00;100.00
6136;BME280;24008;42.664;23.372;2023-06-04T02:20:58;94916.66;;;15.18;100.00
6136;BME280;24008;42.664;23.372;2023-06-04T02:23:27;94875.97;;;14.97;100.00
6136;BME280;24008;42.664;23.372;2023-06-04T02:25:53;94828.56;;;14.67;100.00
6136;BME280;24008;42.664;23.372;2023-06-04T02:28:20;94874.03;;;14.99;100.00
6136;BME280;24008;42.664;23.372;2023-06-04T02:30:47;94919.88;;;15.20;100.00
6136;BME280;24008;42.664;23.372;2023-06-04T02:33:14;94904.09;;;14.98;100.00
6136;BME280;24008;42.664;23.372;2023-06-04T02:35:41;94650.44;;;13.28;100.00
6136;BME280;24008;42.664;23.372;2023-06-04T02:38:08;94892.72;;;14.85;100.00
6136;BME280;24008;42.664;23.372;2023-06-04T02:40:36;94928.41;;;15.04;100.00
6136;BME280;24008;42.664;23.372;2023-06-04T02:43:03;94933.25;;;15.07;100.00
6136;BME280;24008;42.664;23.372;2023-06-04T02:45:30;94906.56;;;14.84;100.00
6136;BME280;24008;42.664;23.372;2023-06-04T02:47:57;94929.84;;;14.98;100.00
6136;BME280;24008;42.664;23.372;2023-06-04T02:50:24;94932.75;;;15.03;100.00
6136;BME280;24008;42.664;23.372;2023-06-04T02:52:50;94919.91;;;14.95;100.00
6136;BME280;24008;42.664;23.372;2023-06-04T02:55:17;94786.31;;;14.04;100.00
6136;BME280;24008;42.664;23.372;2023-06-04T02:57:45;94939.19;;;15.07;100.00
6136;BME280;24008;42.664;23.372;2023-06-04T03:00:13;94846.44;;;14.52;100.00
6136;BME280;24008;42.664;23.372;2023-06-04T03:02:42;94929.34;;;15.11;100.00
6136;BME280;24008;42.664;23.372;2023-06-04T03:05:11;94760.78;;;13.95;100.00
6136;BME280;24008;42.664;23.372;2023-06-04T03:07:39;94944.66;;;15.21;100.00
6136;BME280;24008;42.664;23.372;2023-06-04T03:10:07;94945.91;;;15.25;100.00
6136;BME280;24008;42.664;23.372;2023-06-04T03:12:34;94945.59;;;15.28;100.00
6136;BME280;24008;42.664;23.372;2023-06-04T03:15:03;94929.19;;;15.21;100.00
6136;BME280;24008;42.664;23.372;2023-06-04T03:17:31;94881.78;;;14.91;100.00
6136;BME280;24008;42.664;23.372;2023-06-04T03:19:57;94943.50;;;15.31;100.00
6136;BME280;24008;42.664;23.372;2023-06-04T03:22:24;94948.50;;;15.33;100.00
6136;BME280;24008;42.664;23.372;2023-06-04T03:24:51;94851.72;;;14.75;100.00
6136;BME280;24008;42.664;23.372;2023-06-04T03:27:18;94886.75;;;15.00;100.00
6136;BME280;24008;42.664;23.372;2023-06-04T03:29:45;94963.75;;;15.42;100.00
6136;BME280;24008;42.664;23.372;2023-06-04T03:32:14;94887.06;;;14.97;100.00
6136;BME280;24008;42.664;23.372;2023-06-04T03:34:42;94957.63;;;15.43;100.00
6136;BME280;24008;42.664;23.372;2023-06-04T03:37:09;94938.50;;;15.30;100.00
6136;BME280;24008;42.664;23.372;2023-06-04T03:39:36;94964.22;;;15.46;100.00
6136;BME280;24008;42.664;23.372;2023-06-04T03:42:03;94928.84;;;15.24;100.00
6136;BME280;24008;42.664;23.372;2023-06-04T03:44:30;94968.38;;;15.47;100.00
6136;BME280;24008;42.664;23.372;2023-06-04T03:46:56;94969.19;;;15.47;100.00
6136;BME280;24008;42.664;23.372;2023-06-04T03:49:25;94929.00;;;15.22;100.00
6136;BME280;24008;42.664;23.372;2023-06-04T03:51:51;94943.16;;;15.34;100.00
6136;BME280;24008;42.664;23.372;2023-06-04T03:54:18;94713.88;;;13.93;100.00
6136;BME280;24008;42.664;23.372;2023-06-04T03:56:45;94977.59;;;15.58;100.00
6136;BME280;24008;42.664;23.372;2023-06-04T03:59:12;94912.47;;;15.17;100.00
6136;BME280;24008;42.664;23.372;2023-06-04T04:01:39;94937.38;;;15.32;100.00
6136;BME280;24008;42.664;23.372;2023-06-04T04:04:06;94980.63;;;15.53;100.00
6136;BME280;24008;42.664;23.372;2023-06-04T04:06:35;94961.66;;;15.38;100.00
6136;BME280;24008;42.664;23.372;2023-06-04T04:09:02;94946.88;;;15.32;100.00
6136;BME280;24008;42.664;23.372;2023-06-04T04:11:31;94942.19;;;15.35;100.00
6136;BME280;24008;42.664;23.372;2023-06-04T04:13:57;94974.84;;;15.51;100.00
6136;BME280;24008;42.664;23.372;2023-06-04T04:16:25;94924.03;;;15.21;100.00
6136;BME280;24008;42.664;23.372;2023-06-04T04:18:52;94987.09;;;15.57;100.00
6136;BME280;24008;42.664;23.372;2023-06-04T04:21:41;94942.53;;;15.32;100.00
6136;BME280;24008;42.664;23.372;2023-06-04T04:24:08;94969.38;;;15.38;100.00
6136;BME280;24008;42.664;23.372;2023-06-04T04:26:34;95018.63;;;15.59;100.00
6136;BME280;24008;42.664;23.372;2023-06-04T04:29:01;94991.75;;;15.62;100.00
6136;BME280;24008;42.664;23.372;2023-06-04T04:31:29;94961.63;;;15.46;100.00
6136;BME280;24008;42.664;23.372;2023-06-04T04:33:57;95004.44;;;15.71;100.00
6136;BME280;24008;42.664;23.372;2023-06-04T04:36:25;94958.25;;;15.62;100.00
6136;BME280;24008;42.664;23.372;2023-06-04T04:38:53;94996.66;;;15.88;100.00
6136;BME280;24008;42.664;23.372;2023-06-04T04:41:20;94969.00;;;15.81;100.00
6136;BME280;24008;42.664;23.372;2023-06-04T04:43:48;94996.13;;;16.00;100.00
6136;BME280;24008;42.664;23.372;2023-06-04T04:46:14;94994.97;;;16.11;100.00
6136;BME280;24008;42.664;23.372;2023-06-04T04:48:41;94976.94;;;16.03;100.00
6136;BME280;24008;42.664;23.372;2023-06-04T04:51:08;94988.75;;;16.28;100.00
6136;BME280;24008;42.664;23.372;2023-06-04T04:53:35;94972.97;;;16.23;100.00
6136;BME280;24008;42.664;23.372;2023-06-04T04:56:03;94993.16;;;16.50;100.00
6136;BME280;24008;42.664;23.372;2023-06-04T04:58:30;94949.50;;;16.18;100.00
6136;BME280;24008;42.664;23.372;2023-06-04T05:00:56;95000.38;;;16.55;100.00
6136;BME280;24008;42.664;23.372;2023-06-04T05:03:23;95005.19;;;16.58;100.00
6136;BME280;24008;42.664;23.372;2023-06-04T05:05:50;94947.81;;;16.25;100.00
6136;BME280;24008;42.664;23.372;2023-06-04T05:08:16;95008.91;;;16.64;99.88
6136;BME280;24008;42.664;23.372;2023-06-04T05:10:43;94814.81;;;15.46;99.88
6136;BME280;24008;42.664;23.372;2023-06-04T05:13:12;95006.44;;;16.70;98.56
6136;BME280;24008;42.664;23.372;2023-06-04T05:15:40;94899.59;;;16.03;98.31
6136;BME280;24008;42.664;23.372;2023-06-04T05:18:07;95008.84;;;16.72;98.70
6136;BME280;24008;42.664;23.372;2023-06-04T05:20:34;94960.50;;;16.35;99.42
6136;BME280;24008;42.664;23.372;2023-06-04T05:23:03;94933.38;;;16.16;99.76
6136;BME280;24008;42.664;23.372;2023-06-04T05:25:30;94988.25;;;16.55;100.00
6136;BME280;24008;42.664;23.372;2023-06-04T05:27:56;95014.19;;;16.70;100.00
6136;BME280;24008;42.664;23.372;2023-06-04T05:30:25;95014.72;;;16.66;100.00
6136;BME280;24008;42.664;23.372;2023-06-04T05:32:51;95015.31;;;16.68;100.00
6136;BME280;24008;42.664;23.372;2023-06-04T05:35:18;94992.84;;;16.45;99.01
6136;BME280;24008;42.664;23.372;2023-06-04T05:37:45;95021.00;;;16.63;95.89
6136;BME280;24008;42.664;23.372;2023-06-04T05:40:19;94959.69;;;16.34;96.12
6136;BME280;24008;42.664;23.372;2023-06-04T05:42:46;94990.03;;;16.55;96.03
6136;BME280;24008;42.664;23.372;2023-06-04T05:45:13;95029.00;;;16.76;96.80
6136;BME280;24008;42.664;23.372;2023-06-04T05:47:41;94992.28;;;16.58;96.40
6136;BME280;24008;42.664;23.372;2023-06-04T05:50:09;94968.50;;;16.48;95.87
6136;BME280;24008;42.664;23.372;2023-06-04T05:52:36;95030.31;;;16.95;94.29
6136;BME280;24008;42.664;23.372;2023-06-04T05:55:03;95039.16;;;17.01;92.30
6136;BME280;24008;42.664;23.372;2023-06-04T05:57:51;95037.00;;;17.04;91.23
6136;BME280;24008;42.664;23.372;2023-06-04T06:00:18;94987.91;;;16.67;91.49
6136;BME280;24008;42.664;23.372;2023-06-04T06:02:47;94950.09;;;16.51;91.14
6136;BME280;24008;42.664;23.372;2023-06-04T06:05:14;95050.06;;;17.11;90.05
6136;BME280;24008;42.664;23.372;2023-06-04T06:07:41;95051.91;;;17.02;90.05
6136;BME280;24008;42.664;23.372;2023-06-04T06:10:09;94895.69;;;16.07;90.66
6136;BME280;24008;42.664;23.372;2023-06-04T06:12:35;95065.38;;;17.12;89.79
6136;BME280;24008;42.664;23.372;2023-06-04T06:15:02;95037.88;;;16.97;89.09
6136;BME280;24008;42.664;23.372;2023-06-04T06:17:29;95080.66;;;17.22;88.72
6136;BME280;24008;42.664;23.372;2023-06-04T06:19:58;95004.81;;;16.92;87.28
6136;BME280;24008;42.664;23.372;2023-06-04T06:22:25;94972.38;;;16.75;87.14
6136;BME280;24008;42.664;23.372;2023-06-04T06:24:52;95026.56;;;17.20;86.63
6136;BME280;24008;42.664;23.372;2023-06-04T06:27:19;95063.81;;;17.49;86.29
6136;BME280;24008;42.664;23.372;2023-06-04T06:29:46;95002.22;;;17.15;86.26
6136;BME280;24008;42.664;23.372;2023-06-04T06:32:13;95061.78;;;17.59;85.70
6136;BME280;24008;42.664;23.372;2023-06-04T06:34:40;95059.19;;;17.59;83.86
6136;BME280;24008;42.664;23.372;2023-06-04T06:37:08;95070.97;;;17.61;83.51
6136;BME280;24008;42.664;23.372;2023-06-04T06:39:34;95065.63;;;17.63;84.11
6136;BME280;24008;42.664;23.372;2023-06-04T06:42:01;95061.38;;;17.70;83.95
6136;BME280;24008;42.664;23.372;2023-06-04T06:44:28;95063.25;;;17.76;84.05
6136;BME280;24008;42.664;23.372;2023-06-04T06:46:55;95060.47;;;17.78;83.63
6136;BME280;24008;42.664;23.372;2023-06-04T06:49:21;95006.03;;;17.42;82.49
6136;BME280;24008;42.664;23.372;2023-06-04T06:51:48;95073.53;;;17.84;82.90
6136;BME280;24008;42.664;23.372;2023-06-04T06:54:16;95073.53;;;17.84;81.14
6136;BME280;24008;42.664;23.372;2023-06-04T06:56:46;95069.50;;;17.82;81.14
6136;BME280;24008;42.664;23.372;2023-06-04T06:59:14;95032.41;;;17.52;81.79
6136;BME280;24008;42.664;23.372;2023-06-04T07:01:40;95073.97;;;17.73;81.91
6136;BME280;24008;42.664;23.372;2023-06-04T07:04:07;95080.03;;;17.80;81.51
6136;BME280;24008;42.664;23.372;2023-06-04T07:06:34;95019.25;;;17.47;81.76
6136;BME280;24008;42.664;23.372;2023-06-04T07:09:01;95035.75;;;17.60;81.56
6136;BME280;24008;42.664;23.372;2023-06-04T07:11:30;95075.31;;;17.98;81.80
6136;BME280;24008;42.664;23.372;2023-06-04T07:13:57;95077.72;;;18.15;81.07
6136;BME280;24008;42.664;23.372;2023-06-04T07:16:24;95083.81;;;18.22;79.71
6136;BME280;24008;42.664;23.372;2023-06-04T07:18:51;95007.72;;;17.72;79.77
6136;BME280;24008;42.664;23.372;2023-06-04T07:21:17;94998.88;;;17.67;79.98
6136;BME280;24008;42.664;23.372;2023-06-04T07:23:45;95049.38;;;18.07;79.49
6136;BME280;24008;42.664;23.372;2023-06-04T07:26:15;95042.22;;;18.09;80.22
6136;BME280;24008;42.664;23.372;2023-06-04T07:28:43;95108.31;;;18.55;80.17
6136;BME280;24008;42.664;23.372;2023-06-04T07:31:10;95098.44;;;18.59;80.71
6136;BME280;24008;42.664;23.372;2023-06-04T07:33:37;95107.25;;;18.64;80.77
6136;BME280;24008;42.664;23.372;2023-06-04T07:36:09;94929.72;;;17.69;80.61
6136;BME280;24008;42.664;23.372;2023-06-04T07:38:35;95104.81;;;18.92;80.19
6136;BME280;24008;42.664;23.372;2023-06-04T07:41:02;95100.75;;;19.04;79.72
6136;BME280;24008;42.664;23.372;2023-06-04T07:43:29;95102.53;;;19.25;78.29
6136;BME280;24008;42.664;23.372;2023-06-04T07:45:57;95107.41;;;19.35;77.55
6136;BME280;24008;42.664;23.372;2023-06-04T07:48:24;95017.13;;;18.75;77.27
6136;BME280;24008;42.664;23.372;2023-06-04T07:50:56;95044.91;;;18.81;79.00
6136;BME280;24008;42.664;23.372;2023-06-04T07:53:23;95117.97;;;19.33;78.69
6136;BME280;24008;42.664;23.372;2023-06-04T07:55:49;95013.16;;;18.57;77.86
6136;BME280;24008;42.664;23.372;2023-06-04T07:58:16;95122.41;;;19.39;78.14
6136;BME280;24008;42.664;23.372;2023-06-04T08:00:43;95126.00;;;19.38;77.22
6136;BME280;24008;42.664;23.372;2023-06-04T08:03:11;95065.16;;;19.13;77.42
6136;BME280;24008;42.664;23.372;2023-06-04T08:05:38;94858.44;;;17.95;77.29
6136;BME280;24008;42.664;23.372;2023-06-04T08:08:05;95049.72;;;19.26;76.76
6136;BME280;24008;42.664;23.372;2023-06-04T08:10:32;95119.91;;;19.67;76.12
6136;BME280;24008;42.664;23.372;2023-06-04T08:12:59;95031.94;;;19.23;75.45
6136;BME280;24008;42.664;23.372;2023-06-04T08:15:25;95107.94;;;19.94;75.54
6136;BME280;24008;42.664;23.372;2023-06-04T08:17:52;95117.78;;;20.05;73.82
6136;BME280;24008;42.664;23.372;2023-06-04T08:20:20;95072.81;;;19.64;74.54
6136;BME280;24008;42.664;23.372;2023-06-04T08:22:47;95118.47;;;19.86;74.93
6136;BME280;24008;42.664;23.372;2023-06-04T08:25:14;94963.25;;;18.85;75.04
6136;BME280;24008;42.664;23.372;2023-06-04T08:27:41;95132.19;;;19.80;75.17
6136;BME280;24008;42.664;23.372;2023-06-04T08:30:09;95123.41;;;19.60;75.01
6136;BME280;24008;42.664;23.372;2023-06-04T08:32:36;95125.66;;;19.63;75.85
6136;BME280;24008;42.664;23.372;2023-06-04T08:35:03;94971.41;;;18.82;75.71
6136;BME280;24008;42.664;23.372;2023-06-04T08:37:32;95005.50;;;19.06;75.86
6136;BME280;24008;42.664;23.372;2023-06-04T08:39:58;95074.53;;;19.57;75.39
6136;BME280;24008;42.664;23.372;2023-06-04T08:42:29;95130.28;;;19.95;74.55
6136;BME280;24008;42.664;23.372;2023-06-04T08:44:56;95136.28;;;19.96;73.04
6136;BME280;24008;42.664;23.372;2023-06-04T08:47:24;95139.06;;;19.94;73.38
6136;BME280;24008;42.664;23.372;2023-06-04T08:49:52;95087.31;;;19.58;72.63
6136;BME280;24008;42.664;23.372;2023-06-04T08:52:21;95103.03;;;19.57;73.06
6136;BME280;24008;42.664;23.372;2023-06-04T08:54:52;95147.75;;;19.80;73.56
6136;BME280;24008;42.664;23.372;2023-06-04T08:57:20;95114.03;;;19.59;74.14
6136;BME280;24008;42.664;23.372;2023-06-04T08:59:47;95147.56;;;20.09;74.26
6136;BME280;24008;42.664;23.372;2023-06-04T09:02:14;95052.06;;;19.64;73.51
6136;BME280;24008;42.664;23.372;2023-06-04T09:04:42;95051.97;;;19.78;72.27
6136;BME280;24008;42.664;23.372;2023-06-04T09:07:11;95126.38;;;20.06;68.28
6136;BME280;24008;42.664;23.372;2023-06-04T09:09:40;95129.31;;;19.96;69.01
6136;BME280;24008;42.664;23.372;2023-06-04T09:12:10;95109.69;;;19.87;69.21
6136;BME280;24008;42.664;23.372;2023-06-04T09:14:38;95159.03;;;20.22;68.54
6136;BME280;24008;42.664;23.372;2023-06-04T09:17:05;95136.31;;;20.30;68.26
6136;BME280;24008;42.664;23.372;2023-06-04T09:19:31;95099.94;;;20.24;66.83
6136;BME280;24008;42.664;23.372;2023-06-04T09:21:59;95152.94;;;20.64;65.43
6136;BME280;24008;42.664;23.372;2023-06-04T09:24:39;95155.00;;;20.81;66.37
6136;BME280;24008;42.664;23.372;2023-06-04T09:27:11;95153.88;;;21.04;63.81
6136;BME280;24008;42.664;23.372;2023-06-04T09:29:38;95071.81;;;20.68;63.18
6136;BME280;24008;42.664;23.372;2023-06-04T09:32:05;95025.84;;;20.62;62.51
6136;BME280;24008;42.664;23.372;2023-06-04T09:34:32;95151.88;;;21.60;62.18
6136;BME280;24008;42.664;23.372;2023-06-04T09:36:59;95156.69;;;21.89;61.61
6136;BME280;24008;42.664;23.372;2023-06-04T09:39:26;95167.91;;;22.30;60.51
6136;BME280;24008;42.664;23.372;2023-06-04T09:42:00;94918.41;;;20.96;59.59
6136;BME280;24008;42.664;23.372;2023-06-04T09:44:28;95126.06;;;22.18;59.01
6136;BME280;24008;42.664;23.372;2023-06-04T09:46:55;95156.03;;;22.60;59.36
6136;BME280;24008;42.664;23.372;2023-06-04T09:49:22;95116.47;;;22.18;58.47
6136;BME280;24008;42.664;23.372;2023-06-04T09:51:49;95126.66;;;22.26;57.74
6136;BME280;24008;42.664;23.372;2023-06-04T09:54:16;95104.44;;;22.04;58.31
6136;BME280;24008;42.664;23.372;2023-06-04T09:56:43;94996.38;;;21.55;57.89
6136;BME280;24008;42.664;23.372;2023-06-04T09:59:11;95002.34;;;21.96;57.69
6136;BME280;24008;42.664;23.372;2023-06-04T10:01:40;95155.13;;;23.06;55.46
6136;BME280;24008;42.664;23.372;2023-06-04T10:04:09;95161.53;;;23.03;56.45
6136;BME280;24008;42.664;23.372;2023-06-04T10:06:39;95118.44;;;23.01;55.70
6136;BME280;24008;42.664;23.372;2023-06-04T10:09:07;95156.75;;;23.00;55.15
6136;BME280;24008;42.664;23.372;2023-06-04T10:11:35;95134.94;;;23.26;55.42
6136;BME280;24008;42.664;23.372;2023-06-04T10:14:10;95127.97;;;24.08;54.57
6136;BME280;24008;42.664;23.372;2023-06-04T10:16:38;95134.00;;;24.88;51.43
6136;BME280;24008;42.664;23.372;2023-06-04T10:19:08;95053.50;;;24.60;49.85
6136;BME280;24008;42.664;23.372;2023-06-04T10:21:36;95130.63;;;25.05;49.50
6136;BME280;24008;42.664;23.372;2023-06-04T10:24:03;95104.47;;;24.87;50.59
6136;BME280;24008;42.664;23.372;2023-06-04T10:26:32;95060.88;;;24.81;50.96
6136;BME280;24008;42.664;23.372;2023-06-04T10:29:00;95133.94;;;25.42;49.77
6136;BME280;24008;42.664;23.372;2023-06-04T10:31:27;95084.22;;;25.12;51.14
6136;BME280;24008;42.664;23.372;2023-06-04T10:34:15;95138.59;;;25.10;49.69
6136;BME280;24008;42.664;23.372;2023-06-04T10:36:52;95106.66;;;24.54;51.04
6136;BME280;24008;42.664;23.372;2023-06-04T10:39:25;95113.25;;;24.74;49.45
6136;BME280;24008;42.664;23.372;2023-06-04T10:41:59;95130.69;;;24.81;49.47
6136;BME280;24008;42.664;23.372;2023-06-04T10:44:26;95126.84;;;24.47;51.10
6136;BME280;24008;42.664;23.372;2023-06-04T10:46:53;95029.03;;;23.25;52.38
6136;BME280;24008;42.664;23.372;2023-06-04T10:49:28;95142.69;;;24.02;53.28
6136;BME280;24008;42.664;23.372;2023-06-04T10:51:55;95136.41;;;24.10;52.24
6136;BME280;24008;42.664;23.372;2023-06-04T10:54:23;95070.03;;;23.74;52.60
6136;BME280;24008;42.664;23.372;2023-06-04T10:56:52;95122.53;;;24.09;52.70
6136;BME280;24008;42.664;23.372;2023-06-04T10:59:19;95117.16;;;24.04;52.93
6136;BME280;24008;42.664;23.372;2023-06-04T11:01:47;95124.19;;;24.28;52.99
6136;BME280;24008;42.664;23.372;2023-06-04T11:04:21;95125.06;;;24.22;51.61
6136;BME280;24008;42.664;23.372;2023-06-04T11:07:00;95073.75;;;23.85;51.34
6136;BME280;24008;42.664;23.372;2023-06-04T11:09:29;94912.78;;;22.48;52.34
6136;BME280;24008;42.664;23.372;2023-06-04T11:11:57;95132.59;;;23.81;53.86
6136;BME280;24008;42.664;23.372;2023-06-04T11:14:24;94954.00;;;22.64;53.61
6136;BME280;24008;42.664;23.372;2023-06-04T11:16:51;94882.81;;;22.01;54.36
6136;BME280;24008;42.664;23.372;2023-06-04T11:19:18;95107.94;;;23.52;53.85
6136;BME280;24008;42.664;23.372;2023-06-04T11:21:45;95128.44;;;23.42;55.08
6136;BME280;24008;42.664;23.372;2023-06-04T11:24:13;95048.91;;;22.88;54.64
6136;BME280;24008;42.664;23.372;2023-06-04T11:26:40;95065.16;;;22.83;55.58
6136;BME280;24008;42.664;23.372;2023-06-04T11:29:10;95099.44;;;22.93;55.86
6136;BME280;24008;42.664;23.372;2023-06-04T11:31:41;95131.22;;;22.51;56.57
6136;BME280;24008;42.664;23.372;2023-06-04T11:34:08;95158.09;;;22.32;58.20
6136;BME280;24008;42.664;23.372;2023-06-04T11:36:38;95082.03;;;21.77;58.73
6136;BME280;24008;42.664;23.372;2023-06-04T11:39:05;95070.59;;;21.51;59.33
6136;BME280;24008;42.664;23.372;2023-06-04T11:41:35;94983.19;;;21.11;59.48
6136;BME280;24008;42.664;23.372;2023-06-04T11:44:03;95121.69;;;22.05;59.32
6136;BME280;24008;42.664;23.372;2023-06-04T11:46:32;95133.09;;;22.04;58.76
6136;BME280;24008;42.664;23.372;2023-06-04T11:48:59;95134.50;;;22.07;59.15
6136;BME280;24008;42.664;23.372;2023-06-04T11:51:26;95065.63;;;21.56;59.02
6136;BME280;24008;42.664;23.372;2023-06-04T11:53:53;95099.63;;;21.88;59.35
6136;BME280;24008;42.664;23.372;2023-06-04T11:56:22;95139.28;;;22.10;59.05
6136;BME280;24008;42.664;23.372;2023-06-04T11:58:54;95110.63;;;21.90;59.76
6136;BME280;24008;42.664;23.372;2023-06-04T12:01:21;95142.69;;;21.97;59.65
6136;BME280;24008;42.664;23.372;2023-06-04T12:03:48;95132.06;;;21.85;60.34
6136;BME280;24008;42.664;23.372;2023-06-04T12:06:16;95132.66;;;21.81;60.95
6136;BME280;24008;42.664;23.372;2023-06-04T12:08:47;95101.66;;;21.73;61.35
6136;BME280;24008;42.664;23.372;2023-06-04T12:11:29;95129.66;;;21.90;60.96
6136;BME280;24008;42.664;23.372;2023-06-04T12:13:59;95146.47;;;21.48;60.69
6136;BME280;24008;42.664;23.372;2023-06-04T12:16:27;95090.31;;;21.00;61.64
6136;BME280;24008;42.664;23.372;2023-06-04T12:19:05;94952.50;;;20.06;61.95
6136;BME280;24008;42.664;23.372;2023-06-04T12:21:32;95144.59;;;21.23;62.66
6136;BME280;24008;42.664;23.372;2023-06-04T12:24:06;95072.84;;;20.74;62.63
6136;BME280;24008;42.664;23.372;2023-06-04T12:26:33;95114.50;;;21.00;62.25
6136;BME280;24008;42.664;23.372;2023-06-04T12:29:09;94997.84;;;20.10;63.07
6136;BME280;24008;42.664;23.372;2023-06-04T12:31:37;95146.69;;;21.06;63.44
6136;BME280;24008;42.664;23.372;2023-06-04T12:34:04;95143.09;;;21.07;63.62
6136;BME280;24008;42.664;23.372;2023-06-04T12:36:30;94963.78;;;19.85;63.37
6136;BME280;24008;42.664;23.372;2023-06-04T12:39:00;95144.91;;;21.00;63.74
6136;BME280;24008;42.664;23.372;2023-06-04T12:41:27;95138.28;;;21.04;63.73
6136;BME280;24008;42.664;23.372;2023-06-04T12:43:55;95142.53;;;21.11;63.60
6136;BME280;24008;42.664;23.372;2023-06-04T12:46:23;95136.53;;;21.11;63.29
6136;BME280;24008;42.664;23.372;2023-06-04T12:48:51;95070.22;;;20.67;63.40
6136;BME280;24008;42.664;23.372;2023-06-04T12:51:18;95142.72;;;21.10;63.74
6136;BME280;24008;42.664;23.372;2023-06-04T12:53:45;95098.22;;;20.78;63.42
6136;BME280;24008;42.664;23.372;2023-06-04T12:56:13;95121.84;;;20.83;63.39
6136;BME280;24008;42.664;23.372;2023-06-04T12:58:40;95125.88;;;20.93;63.86
6136;BME280;24008;42.664;23.372;2023-06-04T13:01:07;95124.22;;;20.78;63.51